Time;durP1;ratioP1;P1;durP2;ratioP2;P2;SDS_P1;SDS_P2;PMS_P1;PMS_P2;Temp;Humidity;BMP_temperature;BMP_pressure;BME280_temperature;BME280_humidity;BME280_pressure;Samples;Min_cycle;Max_cycle;Signal;HPM_P1;HPM_P2
2021/12/25 00:06:35;;;;;;;31.58;14.60;;;;;;;3.94;100.00;94883.69;20536923;28;20065;-84
2021/12/25 00:16:35;;;;;;;43.83;16.40;;;;;;;3.95;100.00;94885.28;20536476;28;20403;-84
2021/12/25 00:36:48;;;;;;;35.63;15.18;;;;;;;3.92;100.00;94870.88;20554884;28;20054;-84
2021/12/25 00:46:49;;;;;;;37.38;16.90;;;;;;;3.92;100.00;94847.28;20568713;28;20123;-84
2021/12/25 00:56:50;;;;;;;35.90;17.92;;;;;;;3.93;100.00;94845.47;20528729;28;20038;-84
2021/12/25 01:06:50;;;;;;;36.63;16.00;;;;;;;3.91;100.00;94834.50;20553670;28;20089;-83
2021/12/25 01:27:48;;;;;;;47.35;17.98;;;;;;;3.93;100.00;94819.28;20541268;28;20057;-82
2021/12/25 01:38:55;;;;;;;37.58;15.73;;;;;;;3.91;100.00;94811.69;20548862;28;20039;-83
2021/12/25 01:48:08;;;;;;;31.13;14.38;;;;;;;3.94;100.00;94807.72;20517250;28;20909;-83
2021/12/25 01:58:09;;;;;;;31.20;13.82;;;;;;;3.93;100.00;94814.03;20523015;28;20051;-85
2021/12/25 02:08:10;;;;;;;25.65;12.15;;;;;;;3.92;100.00;94809.84;20563632;28;20100;-84
2021/12/25 02:28:13;;;;;;;23.65;12.13;;;;;;;3.85;100.00;94814.66;20528607;28;20709;-85
2021/12/25 02:38:13;;;;;;;24.30;12.25;;;;;;;3.86;100.00;94813.56;20535255;28;20053;-83
2021/12/25 02:48:17;;;;;;;26.73;12.40;;;;;;;3.85;100.00;94815.44;20540512;28;20046;-85
2021/12/25 02:58:19;;;;;;;21.45;11.57;;;;;;;3.84;100.00;94798.13;20536711;28;20042;-84
2021/12/25 03:08:20;;;;;;;23.13;11.88;;;;;;;3.80;100.00;94787.47;20533110;28;20137;-82
2021/12/25 03:18:23;;;;;;;24.92;10.52;;;;;;;3.79;100.00;94782.50;20539331;28;20038;-82
2021/12/25 03:28:29;;;;;;;18.50;9.07;;;;;;;3.82;100.00;94787.97;20551246;28;20157;-83
2021/12/25 03:38:30;;;;;;;15.23;8.05;;;;;;;3.82;100.00;94774.88;20535381;28;20046;-83
2021/12/25 03:48:56;;;;;;;16.35;8.00;;;;;;;3.83;100.00;94747.59;20532035;28;20491;-85
2021/12/25 03:58:52;;;;;;;17.23;8.43;;;;;;;3.82;100.00;94740.81;20568056;28;20050;-85
2021/12/25 04:08:52;;;;;;;12.80;6.90;;;;;;;3.78;100.00;94745.06;20571873;28;20069;-84
2021/12/25 04:18:54;;;;;;;15.85;7.70;;;;;;;3.86;100.00;94733.16;20566433;28;20058;-83
2021/12/25 05:09:43;;;;;;;14.20;5.38;;;;;;;3.80;100.00;94763.09;20568077;28;20047;-82
2021/12/25 05:19:43;;;;;;;34.38;7.03;;;;;;;3.81;100.00;94764.66;20571087;28;20096;-82
2021/12/25 05:29:46;;;;;;;10.07;3.95;;;;;;;3.86;100.00;94748.88;20565224;28;20545;-85
2021/12/25 05:39:50;;;;;;;9.98;4.85;;;;;;;3.82;100.00;94758.34;20558390;28;20668;-83
2021/12/25 05:49:51;;;;;;;19.73;5.00;;;;;;;3.76;100.00;94772.56;20560877;28;20741;-82
2021/12/25 05:59:51;;;;;;;6.43;3.38;;;;;;;3.85;100.00;94760.41;20570924;28;20042;-84
2021/12/25 06:20:17;;;;;;;5.15;2.42;;;;;;;3.85;100.00;94775.38;20552372;28;20105;-83
2021/12/25 06:30:17;;;;;;;3.58;1.50;;;;;;;3.77;100.00;94806.34;20563047;28;20092;-85
2021/12/25 06:41:08;;;;;;;5.47;2.53;;;;;;;3.74;100.00;94806.09;20540884;28;20112;-85
2021/12/25 06:51:09;;;;;;;4.97;1.63;;;;;;;3.78;100.00;94809.72;20568080;28;20057;-82
2021/12/25 07:01:10;;;;;;;6.60;2.85;;;;;;;3.75;100.00;94816.31;20576680;28;20055;-82
2021/12/25 07:11:10;;;;;;;7.88;2.10;;;;;;;3.76;100.00;94815.25;20548760;28;20039;-84
2021/12/25 07:21:11;;;;;;;6.93;3.03;;;;;;;3.69;100.00;94816.66;20574067;28;20301;-85
2021/12/25 07:31:12;;;;;;;9.20;4.43;;;;;;;3.70;100.00;94824.22;20559670;28;20626;-86
2021/12/25 07:41:13;;;;;;;16.35;6.80;;;;;;;3.69;100.00;94820.03;20536905;28;20042;-83
2021/12/25 07:51:13;;;;;;;9.57;4.00;;;;;;;3.71;100.00;94832.84;20552493;28;20149;-83
2021/12/25 08:01:14;;;;;;;9.85;4.32;;;;;;;3.79;100.00;94838.25;20596908;28;20052;-85
2021/12/25 08:11:14;;;;;;;12.02;5.32;;;;;;;3.73;100.00;94849.06;20528198;28;20065;-85
2021/12/25 08:21:15;;;;;;;9.80;3.58;;;;;;;3.79;100.00;94855.81;20545488;28;20050;-85
2021/12/25 08:31:15;;;;;;;8.15;3.97;;;;;;;3.99;100.00;94845.13;20527495;28;20471;-86
2021/12/25 08:41:16;;;;;;;8.05;3.85;;;;;;;3.98;100.00;94854.06;20539597;28;20038;-85
2021/12/25 08:51:16;;;;;;;9.93;4.35;;;;;;;3.94;100.00;94858.31;20541996;28;20539;-83
2021/12/25 09:01:16;;;;;;;13.25;6.80;;;;;;;3.92;100.00;94870.88;20587464;28;20042;-84
2021/12/25 09:11:17;;;;;;;10.55;5.65;;;;;;;3.95;100.00;94883.41;20566876;28;20635;-83
2021/12/25 09:21:18;;;;;;;23.45;13.40;;;;;;;4.05;100.00;94879.16;20569557;28;20660;-83
2021/12/25 09:31:19;;;;;;;11.00;5.00;;;;;;;4.15;100.00;94894.75;20569180;28;20501;-86
2021/12/25 09:41:19;;;;;;;9.80;4.15;;;;;;;4.10;100.00;94894.81;20579310;28;20046;-85
2021/12/25 09:51:21;;;;;;;7.25;3.47;;;;;;;4.18;100.00;94905.44;20562318;28;20298;-83
2021/12/25 10:01:42;;;;;;;9.00;3.50;;;;;;;4.27;100.00;94926.59;20561167;28;20062;-83
2021/12/25 10:12:09;;;;;;;6.20;2.25;;;;;;;4.40;100.00;94912.03;20546353;28;20058;-83
2021/12/25 10:22:11;;;;;;;6.28;1.88;;;;;;;4.31;100.00;94913.72;20580610;28;20059;-85
2021/12/25 10:32:22;;;;;;;4.82;2.10;;;;;;;4.17;100.00;94914.38;20561299;28;20057;-84
2021/12/25 10:42:23;;;;;;;4.65;1.83;;;;;;;4.09;100.00;94901.13;20550491;28;20046;-86
2021/12/25 10:52:29;;;;;;;4.10;1.50;;;;;;;4.14;100.00;94906.28;20551457;28;20109;-84
2021/12/25 11:02:40;;;;;;;3.53;1.33;;;;;;;4.18;100.00;94908.06;20559272;28;20043;-85
2021/12/25 11:12:41;;;;;;;6.38;2.45;;;;;;;4.12;100.00;94909.19;20559315;28;20042;-85
2021/12/25 11:22:53;;;;;;;5.28;2.25;;;;;;;4.05;100.00;94898.28;20555936;28;20058;-85
2021/12/25 11:32:55;;;;;;;5.32;2.38;;;;;;;4.17;100.00;94892.66;20547416;28;20408;-86
2021/12/25 11:43:00;;;;;;;7.53;2.50;;;;;;;4.09;100.00;94906.34;20542633;28;20070;-86
2021/12/25 11:53:16;;;;;;;4.95;2.40;;;;;;;3.97;100.00;94907.50;20556907;28;20731;-83
2021/12/25 12:03:38;;;;;;;4.95;2.30;;;;;;;4.04;100.00;94907.16;20608487;23;20050;-73
2021/12/25 12:13:38;;;;;;;6.18;2.95;;;;;;;3.96;100.00;94916.44;20540792;28;22512;-73
2021/12/25 12:34:31;;;;;;;5.32;1.85;;;;;;;3.79;100.00;94914.22;20560680;28;21026;-72
2021/12/25 12:44:32;;;;;;;3.58;1.50;;;;;;;3.72;100.00;94918.22;20583357;28;20105;-71
2021/12/25 12:54:44;;;;;;;5.45;1.48;;;;;;;3.63;100.00;94918.03;20601817;28;20051;-71
2021/12/25 13:04:47;;;;;;;3.83;1.40;;;;;;;3.51;100.00;94915.75;20600802;28;20058;-71
2021/12/25 13:15:13;;;;;;;6.60;2.38;;;;;;;3.34;100.00;94918.78;20616029;28;20169;-71
2021/12/25 13:25:18;;;;;;;11.13;5.47;;;;;;;3.28;100.00;94927.72;20624689;28;20465;-73
2021/12/25 13:35:24;;;;;;;5.90;2.17;;;;;;;3.31;100.00;94921.16;20633406;28;20048;-73
2021/12/25 13:45:24;;;;;;;5.53;2.40;;;;;;;3.32;100.00;94926.13;20615888;28;20483;-73
2021/12/25 13:55:28;;;;;;;4.85;2.05;;;;;;;3.19;100.00;94931.97;20662734;28;20074;-73
2021/12/25 14:05:31;;;;;;;6.57;3.10;;;;;;;3.21;100.00;94927.25;20635100;28;20046;-70
2021/12/25 14:15:34;;;;;;;5.90;2.90;;;;;;;3.27;100.00;94928.78;20634939;28;20441;-73
2021/12/25 14:25:43;;;;;;;5.47;2.78;;;;;;;3.15;100.00;94939.56;20622788;28;20042;-73
2021/12/25 14:35:45;;;;;;;6.55;2.63;;;;;;;2.85;100.00;94950.97;20614216;28;20042;-72
2021/12/25 14:45:50;;;;;;;7.60;2.70;;;;;;;2.84;100.00;94959.91;20615013;28;20406;-73
2021/12/25 14:55:54;;;;;;;7.53;2.40;;;;;;;2.83;100.00;94981.84;20580642;28;20053;-74
2021/12/25 15:05:55;;;;;;;7.53;3.78;;;;;;;2.78;100.00;94987.91;20612635;28;20064;-73
2021/12/25 15:15:59;;;;;;;10.40;4.35;;;;;;;2.66;100.00;94992.66;20618061;28;20533;-71
2021/12/25 15:26:04;;;;;;;8.35;3.60;;;;;;;2.57;100.00;95004.69;20651413;28;20041;-73
2021/12/25 15:36:13;;;;;;;6.93;3.15;;;;;;;2.39;100.00;95011.25;20659338;28;20037;-71
2021/12/25 15:46:15;;;;;;;6.65;3.10;;;;;;;2.21;100.00;95012.63;20649504;28;20080;-71
2021/12/25 15:56:16;;;;;;;6.90;3.58;;;;;;;2.13;100.00;95011.31;20655028;28;20096;-71
2021/12/25 16:06:16;;;;;;;6.75;3.53;;;;;;;2.00;100.00;95020.47;20645136;28;20046;-71
2021/12/25 16:16:17;;;;;;;8.77;3.58;;;;;;;1.96;100.00;95021.22;20633154;28;20490;-73
2021/12/25 16:26:18;;;;;;;6.97;3.03;;;;;;;1.72;100.00;95026.22;20633878;28;20529;-74
2021/12/25 16:36:18;;;;;;;8.55;4.55;;;;;;;1.32;100.00;95035.53;20622426;28;20049;-74
2021/12/25 16:46:19;;;;;;;8.13;4.45;;;;;;;1.45;100.00;95040.28;20641024;28;20053;-75
2021/12/25 16:56:19;;;;;;;10.15;4.78;;;;;;;1.36;100.00;95045.19;20617711;28;20062;-74
2021/12/25 17:06:19;;;;;;;7.80;3.85;;;;;;;1.20;100.00;95046.19;20626079;28;20046;-73
2021/12/25 17:16:20;;;;;;;9.45;4.57;;;;;;;1.21;100.00;95050.38;20652079;28;20446;-74
2021/12/25 17:26:20;;;;;;;9.27;4.65;;;;;;;1.22;100.00;95054.53;20649833;28;20034;-74
2021/12/25 17:36:22;;;;;;;9.48;5.00;;;;;;;1.10;100.00;95056.59;20615134;28;20061;-72
2021/12/25 17:46:23;;;;;;;13.75;6.13;;;;;;;0.97;100.00;95066.44;20640433;28;20056;-73
2021/12/25 17:56:23;;;;;;;12.73;6.63;;;;;;;1.10;100.00;95057.38;20641327;28;20026;-72
2021/12/25 18:06:25;;;;;;;12.68;6.30;;;;;;;1.01;100.00;95051.09;20620645;28;20564;-76
2021/12/25 18:16:26;;;;;;;12.85;7.57;;;;;;;0.76;100.00;95049.16;20636104;28;20041;-74
2021/12/25 18:26:27;;;;;;;14.40;8.25;;;;;;;0.74;100.00;95056.44;20644686;28;20042;-72
2021/12/25 18:36:28;;;;;;;15.55;8.10;;;;;;;0.92;100.00;95063.84;20658927;28;20084;-72
2021/12/25 18:46:29;;;;;;;13.13;7.53;;;;;;;0.86;100.00;95080.50;20643112;28;20070;-72
2021/12/25 18:56:29;;;;;;;14.70;8.25;;;;;;;0.92;100.00;95081.28;20632341;28;20031;-75
2021/12/25 19:06:30;;;;;;;17.77;8.93;;;;;;;0.78;100.00;95079.16;20648001;28;20640;-74
2021/12/25 19:16:30;;;;;;;16.73;8.52;;;;;;;0.75;100.00;95081.47;20611536;28;20103;-74
2021/12/25 19:26:31;;;;;;;29.08;10.07;;;;;;;0.57;100.00;95069.63;20643991;28;20095;-73
2021/12/25 19:36:31;;;;;;;21.23;9.50;;;;;;;0.56;100.00;95070.69;20621462;28;20084;-74
2021/12/25 19:46:33;;;;;;;20.40;10.20;;;;;;;0.60;100.00;95077.72;20614702;28;20222;-75
2021/12/25 19:56:34;;;;;;;26.10;10.45;;;;;;;0.60;100.00;95064.72;20655475;28;20041;-73
2021/12/25 20:06:35;;;;;;;17.42;8.98;;;;;;;0.57;100.00;95067.03;20635474;28;20058;-74
2021/12/25 20:16:35;;;;;;;24.25;10.00;;;;;;;0.56;100.00;95081.09;20638972;28;20054;-72
2021/12/25 20:26:36;;;;;;;24.95;10.07;;;;;;;0.46;100.00;95070.63;20664168;28;20116;-70
2021/12/25 20:36:37;;;;;;;18.80;8.85;;;;;;;0.50;100.00;95072.47;20676979;28;20042;-73
2021/12/25 20:46:38;;;;;;;19.75;9.18;;;;;;;0.47;100.00;95070.38;20660729;28;20185;-73
2021/12/25 20:56:39;;;;;;;20.88;8.65;;;;;;;0.48;100.00;95074.53;20625499;28;20497;-71
2021/12/25 21:06:39;;;;;;;20.25;8.35;;;;;;;0.33;100.00;95084.88;20651439;28;20057;-72
2021/12/25 21:27:56;;;;;;;29.90;11.60;;;;;;;0.23;100.00;95076.97;20644949;28;20046;-73
2021/12/25 21:58:50;;;;;;;33.05;11.90;;;;;;;0.12;100.00;95069.09;20643677;28;19925;-74
2021/12/25 22:08:56;;;;;;;24.02;11.35;;;;;;;0.13;100.00;95064.66;20650022;28;20049;-73
2021/12/25 22:18:58;;;;;;;28.53;11.97;;;;;;;0.02;100.00;95065.63;20638555;28;20434;-73
2021/12/25 22:28:58;;;;;;;38.00;14.13;;;;;;;0.14;100.00;95067.03;20641143;28;20121;-73
2021/12/25 22:38:59;;;;;;;31.42;12.25;;;;;;;0.17;100.00;95065.75;20644423;28;20105;-74
2021/12/25 22:48:59;;;;;;;33.35;12.50;;;;;;;0.10;100.00;95068.56;20637557;28;20492;-73
2021/12/25 22:59:01;;;;;;;33.38;14.40;;;;;;;0.13;100.00;95081.06;20601647;28;20050;-72
2021/12/25 23:09:04;;;;;;;34.17;13.07;;;;;;;0.10;100.00;95076.38;20721811;23;20606;-72
2021/12/25 23:19:05;;;;;;;28.92;13.02;;;;;;;0.21;100.00;95071.25;20566473;28;20138;-72
2021/12/25 23:29:06;;;;;;;32.90;12.88;;;;;;;0.18;100.00;95056.88;20554716;28;20527;-72
2021/12/25 23:39:08;;;;;;;36.20;13.07;;;;;;;0.11;100.00;95054.50;20579402;28;20086;-71
2021/12/25 23:49:09;;;;;;;62.97;14.65;;;;;;;-0.04;100.00;95038.75;20594713;28;20043;-73
2021/12/25 23:59:09;;;;;;;38.17;13.32;;;;;;;0.14;100.00;95042.78;20596581;28;20089;-71
